sensor_id;sensor_type;location;lat;lon;timestamp;P1;durP1;ratioP1;P2;durP2;ratioP2
6763;SDS011;47432;48.760;9.178;2023-02-11T00:01:53;42.30;;;20.60;;
6763;SDS011;47432;48.760;9.178;2023-02-11T00:04:19;44.37;;;23.63;;
6763;SDS011;47432;48.760;9.178;2023-02-11T00:06:46;41.90;;;20.70;;
6763;SDS011;47432;48.760;9.178;2023-02-11T00:09:12;36.63;;;19.47;;
6763;SDS011;47432;48.760;9.178;2023-02-11T00:11:42;42.20;;;21.73;;
6763;SDS011;47432;48.760;9.178;2023-02-11T00:14:08;42.10;;;20.97;;
6763;SDS011;47432;48.760;9.178;2023-02-11T00:16:35;43.03;;;21.50;;
6763;SDS011;47432;48.760;9.178;2023-02-11T00:19:01;36.33;;;18.60;;
6763;SDS011;47432;48.760;9.178;2023-02-11T00:21:29;45.60;;;22.07;;
6763;SDS011;47432;48.760;9.178;2023-02-11T00:23:56;40.37;;;20.40;;
6763;SDS011;47432;48.760;9.178;2023-02-11T00:26:24;53.00;;;24.90;;
6763;SDS011;47432;48.760;9.178;2023-02-11T00:28:51;48.30;;;22.50;;
6763;SDS011;47432;48.760;9.178;2023-02-11T00:31:20;38.47;;;20.50;;
6763;SDS011;47432;48.760;9.178;2023-02-11T00:33:49;40.03;;;19.97;;
6763;SDS011;47432;48.760;9.178;2023-02-11T00:36:16;41.50;;;21.80;;
6763;SDS011;47432;48.760;9.178;2023-02-11T00:38:43;37.23;;;20.07;;
6763;SDS011;47432;48.760;9.178;2023-02-11T00:41:12;49.50;;;23.20;;
6763;SDS011;47432;48.760;9.178;2023-02-11T00:43:38;39.47;;;18.53;;
6763;SDS011;47432;48.760;9.178;2023-02-11T00:46:05;42.33;;;21.43;;
6763;SDS011;47432;48.760;9.178;2023-02-11T00:48:32;41.23;;;21.50;;
6763;SDS011;47432;48.760;9.178;2023-02-11T00:50:58;40.43;;;20.77;;
6763;SDS011;47432;48.760;9.178;2023-02-11T00:53:28;43.73;;;21.33;;
6763;SDS011;47432;48.760;9.178;2023-02-11T00:55:54;41.90;;;22.30;;
6763;SDS011;47432;48.760;9.178;2023-02-11T00:58:20;42.43;;;21.27;;
6763;SDS011;47432;48.760;9.178;2023-02-11T01:00:46;43.53;;;21.53;;
6763;SDS011;47432;48.760;9.178;2023-02-11T01:03:12;46.00;;;22.30;;
6763;SDS011;47432;48.760;9.178;2023-02-11T01:05:38;40.40;;;20.63;;
6763;SDS011;47432;48.760;9.178;2023-02-11T01:08:04;36.63;;;19.80;;
6763;SDS011;47432;48.760;9.178;2023-02-11T01:10:31;43.03;;;22.20;;
6763;SDS011;47432;48.760;9.178;2023-02-11T01:12:57;38.40;;;20.27;;
6763;SDS011;47432;48.760;9.178;2023-02-11T01:15:23;34.40;;;18.60;;
6763;SDS011;47432;48.760;9.178;2023-02-11T01:17:49;42.03;;;21.23;;
6763;SDS011;47432;48.760;9.178;2023-02-11T01:20:22;45.90;;;21.43;;
6763;SDS011;47432;48.760;9.178;2023-02-11T01:22:48;39.93;;;20.87;;
6763;SDS011;47432;48.760;9.178;2023-02-11T01:25:14;41.90;;;20.40;;
6763;SDS011;47432;48.760;9.178;2023-02-11T01:27:40;41.63;;;20.57;;
6763;SDS011;47432;48.760;9.178;2023-02-11T01:30:07;37.60;;;20.20;;
6763;SDS011;47432;48.760;9.178;2023-02-11T01:32:34;44.00;;;20.83;;
6763;SDS011;47432;48.760;9.178;2023-02-11T01:35:00;45.70;;;22.37;;
6763;SDS011;47432;48.760;9.178;2023-02-11T01:37:26;44.00;;;21.70;;
6763;SDS011;47432;48.760;9.178;2023-02-11T01:39:52;44.57;;;20.40;;
6763;SDS011;47432;48.760;9.178;2023-02-11T01:42:19;39.30;;;19.90;;
6763;SDS011;47432;48.760;9.178;2023-02-11T01:44:47;38.43;;;19.80;;
6763;SDS011;47432;48.760;9.178;2023-02-11T01:47:15;36.10;;;19.03;;
6763;SDS011;47432;48.760;9.178;2023-02-11T01:49:42;39.20;;;20.43;;
6763;SDS011;47432;48.760;9.178;2023-02-11T01:52:14;41.97;;;22.13;;
6763;SDS011;47432;48.760;9.178;2023-02-11T01:54:43;45.03;;;21.43;;
6763;SDS011;47432;48.760;9.178;2023-02-11T01:57:30;38.67;;;18.93;;
6763;SDS011;47432;48.760;9.178;2023-02-11T02:02:33;40.00;;;19.80;;
6763;SDS011;47432;48.760;9.178;2023-02-11T02:05:05;48.13;;;19.40;;
6763;SDS011;47432;48.760;9.178;2023-02-11T02:07:38;39.47;;;19.60;;
6763;SDS011;47432;48.760;9.178;2023-02-11T02:10:07;40.20;;;20.03;;
6763;SDS011;47432;48.760;9.178;2023-02-11T02:12:37;40.87;;;19.07;;
6763;SDS011;47432;48.760;9.178;2023-02-11T02:15:26;36.30;;;19.93;;
6763;SDS011;47432;48.760;9.178;2023-02-11T02:34:17;36.80;;;18.23;;
6763;SDS011;47432;48.760;9.178;2023-02-11T02:36:50;31.30;;;17.00;;
6763;SDS011;47432;48.760;9.178;2023-02-11T02:39:21;37.20;;;20.40;;
6763;SDS011;47432;48.760;9.178;2023-02-11T02:41:48;37.80;;;17.23;;
6763;SDS011;47432;48.760;9.178;2023-02-11T02:44:16;37.57;;;19.60;;
6763;SDS011;47432;48.760;9.178;2023-02-11T02:46:43;39.30;;;18.47;;
6763;SDS011;47432;48.760;9.178;2023-02-11T02:49:13;37.23;;;18.70;;
6763;SDS011;47432;48.760;9.178;2023-02-11T02:54:31;34.70;;;19.23;;
6763;SDS011;47432;48.760;9.178;2023-02-11T03:10:14;33.80;;;16.70;;
6763;SDS011;47432;48.760;9.178;2023-02-11T03:12:41;37.30;;;17.73;;
6763;SDS011;47432;48.760;9.178;2023-02-11T03:15:08;32.40;;;16.77;;
6763;SDS011;47432;48.760;9.178;2023-02-11T03:17:40;33.80;;;17.03;;
6763;SDS011;47432;48.760;9.178;2023-02-11T03:20:06;35.63;;;17.73;;
6763;SDS011;47432;48.760;9.178;2023-02-11T03:22:40;29.17;;;16.83;;
6763;SDS011;47432;48.760;9.178;2023-02-11T03:25:07;37.63;;;18.90;;
6763;SDS011;47432;48.760;9.178;2023-02-11T03:30:03;33.97;;;16.20;;
6763;SDS011;47432;48.760;9.178;2023-02-11T03:32:35;30.83;;;16.50;;
6763;SDS011;47432;48.760;9.178;2023-02-11T03:35:25;30.97;;;16.27;;
6763;SDS011;47432;48.760;9.178;2023-02-11T03:38:01;37.03;;;17.23;;
6763;SDS011;47432;48.760;9.178;2023-02-11T03:40:35;34.77;;;18.17;;
6763;SDS011;47432;48.760;9.178;2023-02-11T03:43:07;32.60;;;16.60;;
6763;SDS011;47432;48.760;9.178;2023-02-11T03:45:34;30.97;;;15.70;;
6763;SDS011;47432;48.760;9.178;2023-02-11T03:48:20;34.50;;;17.10;;
6763;SDS011;47432;48.760;9.178;2023-02-11T03:50:50;32.33;;;17.30;;
6763;SDS011;47432;48.760;9.178;2023-02-11T03:53:18;37.63;;;18.37;;
6763;SDS011;47432;48.760;9.178;2023-02-11T03:55:45;35.33;;;18.20;;
6763;SDS011;47432;48.760;9.178;2023-02-11T03:58:16;35.23;;;17.30;;
6763;SDS011;47432;48.760;9.178;2023-02-11T04:00:42;31.90;;;17.30;;
6763;SDS011;47432;48.760;9.178;2023-02-11T04:03:08;39.93;;;19.37;;
6763;SDS011;47432;48.760;9.178;2023-02-11T04:05:35;33.37;;;17.23;;
6763;SDS011;47432;48.760;9.178;2023-02-11T04:08:01;30.47;;;16.80;;
6763;SDS011;47432;48.760;9.178;2023-02-11T04:10:27;32.67;;;17.50;;
6763;SDS011;47432;48.760;9.178;2023-02-11T04:12:53;35.33;;;18.73;;
6763;SDS011;47432;48.760;9.178;2023-02-11T04:15:19;39.83;;;19.63;;
6763;SDS011;47432;48.760;9.178;2023-02-11T04:17:45;33.80;;;19.27;;
6763;SDS011;47432;48.760;9.178;2023-02-11T04:20:11;33.13;;;16.60;;
6763;SDS011;47432;48.760;9.178;2023-02-11T04:22:37;38.60;;;17.50;;
6763;SDS011;47432;48.760;9.178;2023-02-11T04:25:03;41.43;;;19.03;;
6763;SDS011;47432;48.760;9.178;2023-02-11T04:27:29;34.73;;;18.53;;
6763;SDS011;47432;48.760;9.178;2023-02-11T04:29:55;32.47;;;16.70;;
6763;SDS011;47432;48.760;9.178;2023-02-11T04:32:21;40.33;;;20.07;;
6763;SDS011;47432;48.760;9.178;2023-02-11T04:34:47;37.33;;;18.97;;
6763;SDS011;47432;48.760;9.178;2023-02-11T04:37:13;29.10;;;15.63;;
6763;SDS011;47432;48.760;9.178;2023-02-11T04:39:40;34.87;;;16.70;;
6763;SDS011;47432;48.760;9.178;2023-02-11T04:42:05;36.30;;;19.00;;
6763;SDS011;47432;48.760;9.178;2023-02-11T04:44:31;33.00;;;16.87;;
6763;SDS011;47432;48.760;9.178;2023-02-11T04:46:57;32.83;;;17.40;;
6763;SDS011;47432;48.760;9.178;2023-02-11T04:49:24;33.63;;;15.93;;
6763;SDS011;47432;48.760;9.178;2023-02-11T04:51:50;32.10;;;15.17;;
6763;SDS011;47432;48.760;9.178;2023-02-11T04:54:16;37.17;;;17.50;;
6763;SDS011;47432;48.760;9.178;2023-02-11T04:56:42;32.63;;;16.20;;
6763;SDS011;47432;48.760;9.178;2023-02-11T04:59:08;32.90;;;16.17;;
6763;SDS011;47432;48.760;9.178;2023-02-11T05:01:37;27.63;;;15.10;;
6763;SDS011;47432;48.760;9.178;2023-02-11T05:04:03;30.43;;;15.27;;
6763;SDS011;47432;48.760;9.178;2023-02-11T05:06:29;32.03;;;16.50;;
6763;SDS011;47432;48.760;9.178;2023-02-11T05:08:55;32.63;;;16.70;;
6763;SDS011;47432;48.760;9.178;2023-02-11T05:11:22;28.80;;;16.40;;
6763;SDS011;47432;48.760;9.178;2023-02-11T05:13:49;29.77;;;16.23;;
6763;SDS011;47432;48.760;9.178;2023-02-11T05:16:17;33.73;;;17.63;;
6763;SDS011;47432;48.760;9.178;2023-02-11T05:18:43;31.63;;;17.43;;
6763;SDS011;47432;48.760;9.178;2023-02-11T05:21:13;33.83;;;16.87;;
6763;SDS011;47432;48.760;9.178;2023-02-11T05:23:40;27.57;;;17.67;;
6763;SDS011;47432;48.760;9.178;2023-02-11T05:26:06;30.40;;;15.57;;
6763;SDS011;47432;48.760;9.178;2023-02-11T05:28:33;27.67;;;15.27;;
6763;SDS011;47432;48.760;9.178;2023-02-11T05:30:59;33.87;;;16.63;;
6763;SDS011;47432;48.760;9.178;2023-02-11T05:33:25;30.70;;;15.93;;
6763;SDS011;47432;48.760;9.178;2023-02-11T05:35:51;26.83;;;16.37;;
6763;SDS011;47432;48.760;9.178;2023-02-11T05:38:17;27.00;;;14.57;;
6763;SDS011;47432;48.760;9.178;2023-02-11T05:40:43;27.00;;;16.93;;
6763;SDS011;47432;48.760;9.178;2023-02-11T05:43:11;30.77;;;16.27;;
6763;SDS011;47432;48.760;9.178;2023-02-11T05:45:37;35.93;;;16.53;;
6763;SDS011;47432;48.760;9.178;2023-02-11T05:48:03;30.87;;;15.97;;
6763;SDS011;47432;48.760;9.178;2023-02-11T05:50:29;30.30;;;17.27;;
6763;SDS011;47432;48.760;9.178;2023-02-11T05:52:55;32.60;;;17.97;;
6763;SDS011;47432;48.760;9.178;2023-02-11T05:55:23;32.93;;;17.20;;
6763;SDS011;47432;48.760;9.178;2023-02-11T05:57:49;32.97;;;15.83;;
6763;SDS011;47432;48.760;9.178;2023-02-11T06:00:18;28.80;;;16.80;;
6763;SDS011;47432;48.760;9.178;2023-02-11T06:02:43;31.37;;;17.20;;
6763;SDS011;47432;48.760;9.178;2023-02-11T06:05:09;29.93;;;16.30;;
6763;SDS011;47432;48.760;9.178;2023-02-11T06:07:35;28.73;;;16.30;;
6763;SDS011;47432;48.760;9.178;2023-02-11T06:10:04;33.60;;;17.90;;
6763;SDS011;47432;48.760;9.178;2023-02-11T06:12:30;31.07;;;16.30;;
6763;SDS011;47432;48.760;9.178;2023-02-11T06:14:56;35.07;;;17.53;;
6763;SDS011;47432;48.760;9.178;2023-02-11T06:17:22;33.63;;;17.30;;
6763;SDS011;47432;48.760;9.178;2023-02-11T06:19:51;31.97;;;17.13;;
6763;SDS011;47432;48.760;9.178;2023-02-11T06:22:20;38.97;;;18.13;;
6763;SDS011;47432;48.760;9.178;2023-02-11T06:24:48;33.93;;;17.90;;
6763;SDS011;47432;48.760;9.178;2023-02-11T06:27:14;34.30;;;19.53;;
6763;SDS011;47432;48.760;9.178;2023-02-11T06:29:40;25.80;;;15.37;;
6763;SDS011;47432;48.760;9.178;2023-02-11T06:32:08;25.57;;;15.70;;
6763;SDS011;47432;48.760;9.178;2023-02-11T06:34:34;33.27;;;17.70;;
6763;SDS011;47432;48.760;9.178;2023-02-11T06:37:00;31.17;;;17.00;;
6763;SDS011;47432;48.760;9.178;2023-02-11T06:39:26;32.30;;;17.60;;
6763;SDS011;47432;48.760;9.178;2023-02-11T06:41:52;31.53;;;17.43;;
6763;SDS011;47432;48.760;9.178;2023-02-11T06:44:20;29.83;;;16.67;;
6763;SDS011;47432;48.760;9.178;2023-02-11T06:46:49;31.67;;;17.50;;
6763;SDS011;47432;48.760;9.178;2023-02-11T06:49:15;26.90;;;15.37;;
6763;SDS011;47432;48.760;9.178;2023-02-11T06:51:41;26.73;;;15.77;;
6763;SDS011;47432;48.760;9.178;2023-02-11T06:54:06;31.43;;;17.47;;
6763;SDS011;47432;48.760;9.178;2023-02-11T06:56:33;28.03;;;15.83;;
6763;SDS011;47432;48.760;9.178;2023-02-11T06:59:01;29.07;;;17.33;;
6763;SDS011;47432;48.760;9.178;2023-02-11T07:01:27;31.60;;;16.60;;
6763;SDS011;47432;48.760;9.178;2023-02-11T07:03:53;32.23;;;18.90;;
6763;SDS011;47432;48.760;9.178;2023-02-11T07:06:20;31.90;;;17.37;;
6763;SDS011;47432;48.760;9.178;2023-02-11T07:08:48;33.50;;;18.10;;
6763;SDS011;47432;48.760;9.178;2023-02-11T07:11:15;28.67;;;16.23;;
6763;SDS011;47432;48.760;9.178;2023-02-11T07:13:42;37.67;;;19.27;;
6763;SDS011;47432;48.760;9.178;2023-02-11T07:16:09;32.50;;;18.17;;
6763;SDS011;47432;48.760;9.178;2023-02-11T07:18:35;27.93;;;16.43;;
6763;SDS011;47432;48.760;9.178;2023-02-11T07:21:03;29.13;;;15.47;;
6763;SDS011;47432;48.760;9.178;2023-02-11T07:23:29;29.03;;;16.37;;
6763;SDS011;47432;48.760;9.178;2023-02-11T07:26:01;30.47;;;15.80;;
6763;SDS011;47432;48.760;9.178;2023-02-11T07:28:29;27.33;;;16.00;;
6763;SDS011;47432;48.760;9.178;2023-02-11T07:30:55;27.37;;;15.27;;
6763;SDS011;47432;48.760;9.178;2023-02-11T07:33:21;26.13;;;14.70;;
6763;SDS011;47432;48.760;9.178;2023-02-11T07:35:46;25.43;;;12.73;;
6763;SDS011;47432;48.760;9.178;2023-02-11T07:38:15;26.00;;;14.90;;
6763;SDS011;47432;48.760;9.178;2023-02-11T07:40:40;27.40;;;14.33;;
6763;SDS011;47432;48.760;9.178;2023-02-11T07:43:06;26.30;;;15.53;;
6763;SDS011;47432;48.760;9.178;2023-02-11T07:45:33;28.73;;;15.83;;
6763;SDS011;47432;48.760;9.178;2023-02-11T07:47:59;30.80;;;16.63;;
6763;SDS011;47432;48.760;9.178;2023-02-11T07:50:29;27.60;;;16.40;;
6763;SDS011;47432;48.760;9.178;2023-02-11T07:52:55;29.07;;;16.60;;
6763;SDS011;47432;48.760;9.178;2023-02-11T07:55:21;29.27;;;15.43;;
6763;SDS011;47432;48.760;9.178;2023-02-11T07:57:49;29.80;;;15.50;;
6763;SDS011;47432;48.760;9.178;2023-02-11T08:00:15;26.50;;;15.63;;
6763;SDS011;47432;48.760;9.178;2023-02-11T08:02:41;27.93;;;14.90;;
6763;SDS011;47432;48.760;9.178;2023-02-11T08:05:07;31.47;;;18.57;;
6763;SDS011;47432;48.760;9.178;2023-02-11T08:07:33;26.57;;;14.90;;
6763;SDS011;47432;48.760;9.178;2023-02-11T08:09:59;28.17;;;15.67;;
6763;SDS011;47432;48.760;9.178;2023-02-11T08:12:25;42.73;;;25.60;;
6763;SDS011;47432;48.760;9.178;2023-02-11T08:14:53;28.60;;;15.07;;
6763;SDS011;47432;48.760;9.178;2023-02-11T08:17:22;25.37;;;13.90;;
6763;SDS011;47432;48.760;9.178;2023-02-11T08:19:48;24.90;;;14.30;;
6763;SDS011;47432;48.760;9.178;2023-02-11T08:22:14;25.30;;;14.03;;
6763;SDS011;47432;48.760;9.178;2023-02-11T08:24:40;19.57;;;11.03;;
6763;SDS011;47432;48.760;9.178;2023-02-11T08:27:06;20.03;;;10.00;;
6763;SDS011;47432;48.760;9.178;2023-02-11T08:29:32;18.40;;;9.90;;
6763;SDS011;47432;48.760;9.178;2023-02-11T08:31:58;19.50;;;10.50;;
6763;SDS011;47432;48.760;9.178;2023-02-11T08:34:23;19.77;;;11.47;;
6763;SDS011;47432;48.760;9.178;2023-02-11T08:36:49;23.80;;;13.80;;
6763;SDS011;47432;48.760;9.178;2023-02-11T08:39:16;21.90;;;12.03;;
6763;SDS011;47432;48.760;9.178;2023-02-11T08:41:43;21.83;;;12.13;;
6763;SDS011;47432;48.760;9.178;2023-02-11T08:44:09;21.80;;;12.60;;
6763;SDS011;47432;48.760;9.178;2023-02-11T08:46:35;24.10;;;14.17;;
6763;SDS011;47432;48.760;9.178;2023-02-11T08:49:01;25.10;;;13.27;;
6763;SDS011;47432;48.760;9.178;2023-02-11T08:51:28;22.60;;;12.03;;
6763;SDS011;47432;48.760;9.178;2023-02-11T08:53:55;23.73;;;12.30;;
6763;SDS011;47432;48.760;9.178;2023-02-11T08:56:22;23.03;;;11.67;;
6763;SDS011;47432;48.760;9.178;2023-02-11T08:58:49;21.30;;;12.10;;
6763;SDS011;47432;48.760;9.178;2023-02-11T09:01:20;21.37;;;13.10;;
6763;SDS011;47432;48.760;9.178;2023-02-11T09:03:48;23.20;;;13.77;;
6763;SDS011;47432;48.760;9.178;2023-02-11T09:06:14;24.10;;;12.30;;
6763;SDS011;47432;48.760;9.178;2023-02-11T09:08:43;23.23;;;13.17;;
6763;SDS011;47432;48.760;9.178;2023-02-11T09:11:13;23.63;;;13.40;;
6763;SDS011;47432;48.760;9.178;2023-02-11T09:13:45;22.40;;;12.80;;
6763;SDS011;47432;48.760;9.178;2023-02-11T09:16:15;25.20;;;14.30;;
6763;SDS011;47432;48.760;9.178;2023-02-11T09:18:50;24.33;;;13.23;;
6763;SDS011;47432;48.760;9.178;2023-02-11T09:21:19;21.33;;;12.20;;
6763;SDS011;47432;48.760;9.178;2023-02-11T09:23:49;20.70;;;11.87;;
6763;SDS011;47432;48.760;9.178;2023-02-11T09:26:20;21.07;;;11.40;;
6763;SDS011;47432;48.760;9.178;2023-02-11T09:28:58;18.73;;;10.60;;
6763;SDS011;47432;48.760;9.178;2023-02-11T09:31:28;21.17;;;11.53;;
6763;SDS011;47432;48.760;9.178;2023-02-11T09:33:57;26.10;;;13.53;;
6763;SDS011;47432;48.760;9.178;2023-02-11T09:36:30;23.60;;;13.60;;
6763;SDS011;47432;48.760;9.178;2023-02-11T09:39:04;20.93;;;13.10;;
6763;SDS011;47432;48.760;9.178;2023-02-11T09:44:33;24.23;;;12.87;;
6763;SDS011;47432;48.760;9.178;2023-02-11T09:47:02;28.67;;;14.40;;
6763;SDS011;47432;48.760;9.178;2023-02-11T09:49:38;22.27;;;12.50;;
6763;SDS011;47432;48.760;9.178;2023-02-11T09:54:57;24.30;;;14.30;;
6763;SDS011;47432;48.760;9.178;2023-02-11T09:57:31;21.30;;;12.73;;
6763;SDS011;47432;48.760;9.178;2023-02-11T09:59:59;23.93;;;12.93;;
6763;SDS011;47432;48.760;9.178;2023-02-11T10:05:43;26.80;;;12.63;;
6763;SDS011;47432;48.760;9.178;2023-02-11T10:17:25;20.40;;;11.53;;
6763;SDS011;47432;48.760;9.178;2023-02-11T10:23:18;18.97;;;11.27;;
6763;SDS011;47432;48.760;9.178;2023-02-11T10:25:52;24.00;;;12.57;;
6763;SDS011;47432;48.760;9.178;2023-02-11T10:28:28;24.27;;;13.20;;
6763;SDS011;47432;48.760;9.178;2023-02-11T10:33:52;24.60;;;12.90;;
6763;SDS011;47432;48.760;9.178;2023-02-11T10:36:46;26.37;;;12.73;;
6763;SDS011;47432;48.760;9.178;2023-02-11T10:39:16;22.80;;;12.27;;
6763;SDS011;47432;48.760;9.178;2023-02-11T10:41:49;21.53;;;11.97;;
6763;SDS011;47432;48.760;9.178;2023-02-11T10:47:04;20.50;;;10.93;;
6763;SDS011;47432;48.760;9.178;2023-02-11T10:49:44;19.23;;;11.10;;
6763;SDS011;47432;48.760;9.178;2023-02-11T10:54:56;35.70;;;22.80;;
6763;SDS011;47432;48.760;9.178;2023-02-11T10:57:27;35.60;;;19.87;;
6763;SDS011;47432;48.760;9.178;2023-02-11T11:00:00;36.30;;;20.30;;
6763;SDS011;47432;48.760;9.178;2023-02-11T11:02:51;36.73;;;21.33;;
6763;SDS011;47432;48.760;9.178;2023-02-11T11:06:07;31.30;;;18.33;;
6763;SDS011;47432;48.760;9.178;2023-02-11T11:08:16;27.30;;;17.83;;
6763;SDS011;47432;48.760;9.178;2023-02-11T11:10:47;35.63;;;18.40;;
6763;SDS011;47432;48.760;9.178;2023-02-11T11:13:38;29.70;;;17.40;;
6763;SDS011;47432;48.760;9.178;2023-02-11T11:16:14;33.50;;;18.10;;
6763;SDS011;47432;48.760;9.178;2023-02-11T11:18:44;30.00;;;17.67;;
6763;SDS011;47432;48.760;9.178;2023-02-11T11:23:47;25.33;;;15.33;;
6763;SDS011;47432;48.760;9.178;2023-02-11T11:26:17;22.90;;;13.50;;
6763;SDS011;47432;48.760;9.178;2023-02-11T11:28:59;24.00;;;14.10;;
6763;SDS011;47432;48.760;9.178;2023-02-11T11:31:35;22.87;;;13.10;;
6763;SDS011;47432;48.760;9.178;2023-02-11T11:34:17;23.10;;;13.97;;
6763;SDS011;47432;48.760;9.178;2023-02-11T11:36:55;21.10;;;12.17;;
6763;SDS011;47432;48.760;9.178;2023-02-11T11:39:26;20.10;;;11.37;;
6763;SDS011;47432;48.760;9.178;2023-02-11T11:42:03;23.47;;;11.70;;
6763;SDS011;47432;48.760;9.178;2023-02-11T11:44:55;20.33;;;11.70;;
6763;SDS011;47432;48.760;9.178;2023-02-11T11:47:50;21.17;;;13.27;;
6763;SDS011;47432;48.760;9.178;2023-02-11T11:50:46;20.57;;;12.33;;
6763;SDS011;47432;48.760;9.178;2023-02-11T11:58:35;21.33;;;13.00;;
6763;SDS011;47432;48.760;9.178;2023-02-11T12:04:18;20.67;;;10.27;;
6763;SDS011;47432;48.760;9.178;2023-02-11T12:12:43;20.33;;;11.67;;
6763;SDS011;47432;48.760;9.178;2023-02-11T12:21:48;16.97;;;9.97;;
6763;SDS011;47432;48.760;9.178;2023-02-11T12:35:47;17.90;;;9.60;;
6763;SDS011;47432;48.760;9.178;2023-02-11T12:46:02;18.87;;;10.23;;
6763;SDS011;47432;48.760;9.178;2023-02-11T12:48:23;16.97;;;8.73;;
6763;SDS011;47432;48.760;9.178;2023-02-11T12:54:17;18.30;;;9.50;;
6763;SDS011;47432;48.760;9.178;2023-02-11T12:56:56;14.17;;;8.10;;
6763;SDS011;47432;48.760;9.178;2023-02-11T13:05:32;17.73;;;9.13;;
6763;SDS011;47432;48.760;9.178;2023-02-11T13:08:30;18.00;;;9.60;;
6763;SDS011;47432;48.760;9.178;2023-02-11T13:11:06;16.13;;;8.80;;
6763;SDS011;47432;48.760;9.178;2023-02-11T13:13:55;16.60;;;8.87;;
6763;SDS011;47432;48.760;9.178;2023-02-11T13:16:49;15.93;;;7.93;;
6763;SDS011;47432;48.760;9.178;2023-02-11T13:19:31;14.93;;;7.90;;
6763;SDS011;47432;48.760;9.178;2023-02-11T13:22:15;17.07;;;8.37;;
6763;SDS011;47432;48.760;9.178;2023-02-11T13:25:01;18.07;;;8.17;;
6763;SDS011;47432;48.760;9.178;2023-02-11T13:30:34;17.50;;;8.37;;
6763;SDS011;47432;48.760;9.178;2023-02-11T13:35:43;15.80;;;7.23;;
6763;SDS011;47432;48.760;9.178;2023-02-11T13:38:30;16.70;;;8.00;;
6763;SDS011;47432;48.760;9.178;2023-02-11T13:41:20;17.30;;;8.50;;
6763;SDS011;47432;48.760;9.178;2023-02-11T13:44:15;19.07;;;8.90;;
6763;SDS011;47432;48.760;9.178;2023-02-11T13:49:19;19.83;;;10.00;;
6763;SDS011;47432;48.760;9.178;2023-02-11T13:51:48;21.27;;;11.47;;
6763;SDS011;47432;48.760;9.178;2023-02-11T13:54:48;26.70;;;14.37;;
6763;SDS011;47432;48.760;9.178;2023-02-11T13:59:51;23.13;;;12.80;;
6763;SDS011;47432;48.760;9.178;2023-02-11T14:02:33;21.20;;;12.23;;
6763;SDS011;47432;48.760;9.178;2023-02-11T14:13:29;24.30;;;12.97;;
6763;SDS011;47432;48.760;9.178;2023-02-11T14:16:09;22.07;;;13.10;;
6763;SDS011;47432;48.760;9.178;2023-02-11T14:21:12;24.20;;;13.40;;
6763;SDS011;47432;48.760;9.178;2023-02-11T14:29:01;26.23;;;13.93;;
6763;SDS011;47432;48.760;9.178;2023-02-11T14:31:48;26.07;;;14.70;;
6763;SDS011;47432;48.760;9.178;2023-02-11T14:34:48;25.73;;;13.00;;
6763;SDS011;47432;48.760;9.178;2023-02-11T14:37:32;26.20;;;13.20;;
6763;SDS011;47432;48.760;9.178;2023-02-11T14:41:00;25.07;;;12.80;;
6763;SDS011;47432;48.760;9.178;2023-02-11T14:43:39;24.50;;;12.97;;
6763;SDS011;47432;48.760;9.178;2023-02-11T14:46:16;31.87;;;14.27;;
6763;SDS011;47432;48.760;9.178;2023-02-11T14:48:45;24.97;;;14.00;;
6763;SDS011;47432;48.760;9.178;2023-02-11T14:51:23;23.73;;;13.53;;
6763;SDS011;47432;48.760;9.178;2023-02-11T14:53:54;23.37;;;12.90;;
6763;SDS011;47432;48.760;9.178;2023-02-11T14:56:28;23.03;;;11.93;;
6763;SDS011;47432;48.760;9.178;2023-02-11T14:58:56;23.20;;;12.47;;
6763;SDS011;47432;48.760;9.178;2023-02-11T15:04:00;24.50;;;12.97;;
6763;SDS011;47432;48.760;9.178;2023-02-11T15:09:12;24.70;;;12.13;;
6763;SDS011;47432;48.760;9.178;2023-02-11T15:12:25;24.80;;;13.50;;
6763;SDS011;47432;48.760;9.178;2023-02-11T15:14:53;23.50;;;11.90;;
6763;SDS011;47432;48.760;9.178;2023-02-11T15:17:26;20.73;;;11.27;;
6763;SDS011;47432;48.760;9.178;2023-02-11T15:19:58;25.30;;;12.70;;
6763;SDS011;47432;48.760;9.178;2023-02-11T15:22:27;22.67;;;12.33;;
6763;SDS011;47432;48.760;9.178;2023-02-11T15:27:40;31.30;;;15.17;;
6763;SDS011;47432;48.760;9.178;2023-02-11T15:30:34;24.20;;;13.80;;
6763;SDS011;47432;48.760;9.178;2023-02-11T15:33:01;25.37;;;14.13;;
6763;SDS011;47432;48.760;9.178;2023-02-11T15:35:33;29.47;;;14.50;;
6763;SDS011;47432;48.760;9.178;2023-02-11T15:38:03;26.57;;;14.33;;
6763;SDS011;47432;48.760;9.178;2023-02-11T15:40:35;23.10;;;12.80;;
6763;SDS011;47432;48.760;9.178;2023-02-11T15:43:08;25.77;;;14.73;;
6763;SDS011;47432;48.760;9.178;2023-02-11T15:45:38;25.30;;;13.77;;
6763;SDS011;47432;48.760;9.178;2023-02-11T15:48:16;27.07;;;13.90;;
6763;SDS011;47432;48.760;9.178;2023-02-11T15:50:50;26.93;;;14.93;;
6763;SDS011;47432;48.760;9.178;2023-02-11T15:55:56;27.70;;;13.90;;
6763;SDS011;47432;48.760;9.178;2023-02-11T15:58:50;26.53;;;12.90;;
6763;SDS011;47432;48.760;9.178;2023-02-11T16:01:25;28.13;;;14.70;;
6763;SDS011;47432;48.760;9.178;2023-02-11T16:03:58;34.77;;;17.03;;
6763;SDS011;47432;48.760;9.178;2023-02-11T16:06:25;24.60;;;13.20;;
6763;SDS011;47432;48.760;9.178;2023-02-11T16:14:21;28.20;;;17.70;;
6763;SDS011;47432;48.760;9.178;2023-02-11T16:19:35;25.63;;;15.10;;
6763;SDS011;47432;48.760;9.178;2023-02-11T16:22:08;26.67;;;15.33;;
6763;SDS011;47432;48.760;9.178;2023-02-11T16:24:40;32.97;;;17.73;;
6763;SDS011;47432;48.760;9.178;2023-02-11T16:27:07;29.60;;;15.97;;
6763;SDS011;47432;48.760;9.178;2023-02-11T16:29:46;23.27;;;13.50;;
6763;SDS011;47432;48.760;9.178;2023-02-11T16:32:15;30.70;;;16.80;;
6763;SDS011;47432;48.760;9.178;2023-02-11T16:34:43;30.77;;;16.47;;
6763;SDS011;47432;48.760;9.178;2023-02-11T16:37:11;26.23;;;14.83;;
6763;SDS011;47432;48.760;9.178;2023-02-11T16:39:37;24.90;;;11.67;;
6763;SDS011;47432;48.760;9.178;2023-02-11T16:42:02;30.13;;;15.63;;
6763;SDS011;47432;48.760;9.178;2023-02-11T16:44:30;26.77;;;14.90;;
6763;SDS011;47432;48.760;9.178;2023-02-11T16:46:57;28.00;;;16.80;;
6763;SDS011;47432;48.760;9.178;2023-02-11T16:49:25;29.40;;;16.80;;
6763;SDS011;47432;48.760;9.178;2023-02-11T16:51:58;30.03;;;17.13;;
6763;SDS011;47432;48.760;9.178;2023-02-11T16:54:27;24.00;;;14.43;;
6763;SDS011;47432;48.760;9.178;2023-02-11T16:56:53;25.10;;;12.30;;
6763;SDS011;47432;48.760;9.178;2023-02-11T16:59:24;33.10;;;16.73;;
6763;SDS011;47432;48.760;9.178;2023-02-11T17:01:51;31.33;;;17.17;;
6763;SDS011;47432;48.760;9.178;2023-02-11T17:06:51;29.80;;;14.17;;
6763;SDS011;47432;48.760;9.178;2023-02-11T17:09:20;29.40;;;16.47;;
6763;SDS011;47432;48.760;9.178;2023-02-11T17:11:54;29.73;;;17.53;;
6763;SDS011;47432;48.760;9.178;2023-02-11T17:14:20;33.37;;;18.50;;
6763;SDS011;47432;48.760;9.178;2023-02-11T17:16:46;31.20;;;17.77;;
6763;SDS011;47432;48.760;9.178;2023-02-11T17:19:17;28.53;;;15.97;;
6763;SDS011;47432;48.760;9.178;2023-02-11T17:21:45;28.93;;;16.63;;
6763;SDS011;47432;48.760;9.178;2023-02-11T17:24:14;26.43;;;14.83;;
6763;SDS011;47432;48.760;9.178;2023-02-11T17:26:40;32.60;;;17.10;;
6763;SDS011;47432;48.760;9.178;2023-02-11T17:29:11;33.07;;;18.60;;
6763;SDS011;47432;48.760;9.178;2023-02-11T17:31:40;28.20;;;16.70;;
6763;SDS011;47432;48.760;9.178;2023-02-11T17:34:06;31.50;;;16.03;;
6763;SDS011;47432;48.760;9.178;2023-02-11T17:36:32;30.40;;;17.50;;
6763;SDS011;47432;48.760;9.178;2023-02-11T17:38:59;33.70;;;21.60;;
6763;SDS011;47432;48.760;9.178;2023-02-11T17:41:25;34.30;;;19.33;;
6763;SDS011;47432;48.760;9.178;2023-02-11T17:43:51;29.20;;;16.93;;